sensor_id;sensor_type;location;lat;lon;timestamp;P1;durP1;ratioP1;P2;durP2;ratioP2
11996;SDS011;6058;48.704;9.474;2023-04-10T00:02:26;10.37;;;7.17;;
11996;SDS011;6058;48.704;9.474;2023-04-10T00:04:54;9.40;;;6.80;;
11996;SDS011;6058;48.704;9.474;2023-04-10T00:07:21;9.67;;;7.17;;
11996;SDS011;6058;48.704;9.474;2023-04-10T00:09:48;8.87;;;7.00;;
11996;SDS011;6058;48.704;9.474;2023-04-10T00:12:16;10.40;;;7.00;;
11996;SDS011;6058;48.704;9.474;2023-04-10T00:14:44;9.30;;;6.70;;
11996;SDS011;6058;48.704;9.474;2023-04-10T00:17:14;11.77;;;8.60;;
11996;SDS011;6058;48.704;9.474;2023-04-10T00:19:42;7.80;;;6.40;;
11996;SDS011;6058;48.704;9.474;2023-04-10T00:22:09;9.90;;;7.37;;
11996;SDS011;6058;48.704;9.474;2023-04-10T00:24:36;9.57;;;7.93;;
11996;SDS011;6058;48.704;9.474;2023-04-10T00:27:03;11.10;;;7.40;;
11996;SDS011;6058;48.704;9.474;2023-04-10T00:29:31;9.87;;;6.77;;
11996;SDS011;6058;48.704;9.474;2023-04-10T00:31:58;10.17;;;7.57;;
11996;SDS011;6058;48.704;9.474;2023-04-10T00:34:26;9.80;;;7.40;;
11996;SDS011;6058;48.704;9.474;2023-04-10T00:36:53;9.07;;;6.80;;
11996;SDS011;6058;48.704;9.474;2023-04-10T00:39:20;9.10;;;6.50;;
11996;SDS011;6058;48.704;9.474;2023-04-10T00:41:47;9.77;;;6.97;;
11996;SDS011;6058;48.704;9.474;2023-04-10T00:44:14;9.90;;;6.80;;
11996;SDS011;6058;48.704;9.474;2023-04-10T00:46:43;10.03;;;7.37;;
11996;SDS011;6058;48.704;9.474;2023-04-10T00:49:10;8.90;;;7.10;;
11996;SDS011;6058;48.704;9.474;2023-04-10T00:51:37;9.63;;;7.10;;
11996;SDS011;6058;48.704;9.474;2023-04-10T00:54:05;9.70;;;7.37;;
11996;SDS011;6058;48.704;9.474;2023-04-10T00:56:34;9.80;;;7.20;;
11996;SDS011;6058;48.704;9.474;2023-04-10T00:59:02;8.63;;;6.43;;
11996;SDS011;6058;48.704;9.474;2023-04-10T01:01:29;8.70;;;6.43;;
11996;SDS011;6058;48.704;9.474;2023-04-10T01:03:58;9.93;;;7.07;;
11996;SDS011;6058;48.704;9.474;2023-04-10T01:06:26;10.33;;;7.27;;
11996;SDS011;6058;48.704;9.474;2023-04-10T01:08:59;9.80;;;6.77;;
11996;SDS011;6058;48.704;9.474;2023-04-10T01:11:29;9.37;;;6.27;;
11996;SDS011;6058;48.704;9.474;2023-04-10T01:14:06;8.67;;;6.30;;
11996;SDS011;6058;48.704;9.474;2023-04-10T01:16:39;10.47;;;6.83;;
11996;SDS011;6058;48.704;9.474;2023-04-10T01:19:11;7.30;;;6.00;;
11996;SDS011;6058;48.704;9.474;2023-04-10T01:21:40;8.23;;;5.70;;
11996;SDS011;6058;48.704;9.474;2023-04-10T01:27:03;9.47;;;6.47;;
11996;SDS011;6058;48.704;9.474;2023-04-10T01:29:37;7.97;;;5.73;;
11996;SDS011;6058;48.704;9.474;2023-04-10T01:32:07;9.80;;;6.57;;
11996;SDS011;6058;48.704;9.474;2023-04-10T01:34:38;8.37;;;5.73;;
11996;SDS011;6058;48.704;9.474;2023-04-10T01:37:07;7.37;;;5.67;;
11996;SDS011;6058;48.704;9.474;2023-04-10T01:39:35;8.10;;;5.10;;
11996;SDS011;6058;48.704;9.474;2023-04-10T01:42:03;6.97;;;5.40;;
11996;SDS011;6058;48.704;9.474;2023-04-10T01:44:31;7.77;;;6.17;;
11996;SDS011;6058;48.704;9.474;2023-04-10T01:47:01;8.20;;;6.10;;
11996;SDS011;6058;48.704;9.474;2023-04-10T01:49:31;8.13;;;5.73;;
11996;SDS011;6058;48.704;9.474;2023-04-10T01:51:59;8.50;;;6.30;;
11996;SDS011;6058;48.704;9.474;2023-04-10T01:54:26;7.00;;;5.73;;
11996;SDS011;6058;48.704;9.474;2023-04-10T01:56:54;7.87;;;6.07;;
11996;SDS011;6058;48.704;9.474;2023-04-10T01:59:21;6.37;;;5.77;;
11996;SDS011;6058;48.704;9.474;2023-04-10T02:01:48;8.07;;;5.73;;
11996;SDS011;6058;48.704;9.474;2023-04-10T02:04:22;8.73;;;6.10;;
11996;SDS011;6058;48.704;9.474;2023-04-10T02:06:52;7.33;;;5.53;;
11996;SDS011;6058;48.704;9.474;2023-04-10T02:09:24;7.47;;;5.53;;
11996;SDS011;6058;48.704;9.474;2023-04-10T02:11:57;6.63;;;5.13;;
11996;SDS011;6058;48.704;9.474;2023-04-10T02:14:25;8.13;;;5.53;;
11996;SDS011;6058;48.704;9.474;2023-04-10T02:16:53;10.10;;;6.33;;
11996;SDS011;6058;48.704;9.474;2023-04-10T02:19:23;8.53;;;5.60;;
11996;SDS011;6058;48.704;9.474;2023-04-10T02:21:51;7.70;;;5.90;;
11996;SDS011;6058;48.704;9.474;2023-04-10T02:24:18;8.57;;;5.90;;
11996;SDS011;6058;48.704;9.474;2023-04-10T02:26:48;7.50;;;5.77;;
11996;SDS011;6058;48.704;9.474;2023-04-10T02:29:16;7.30;;;5.80;;
11996;SDS011;6058;48.704;9.474;2023-04-10T02:31:43;7.43;;;5.60;;
11996;SDS011;6058;48.704;9.474;2023-04-10T02:34:11;7.33;;;5.10;;
11996;SDS011;6058;48.704;9.474;2023-04-10T02:36:39;7.80;;;5.60;;
11996;SDS011;6058;48.704;9.474;2023-04-10T02:39:06;7.60;;;5.80;;
11996;SDS011;6058;48.704;9.474;2023-04-10T02:41:33;8.20;;;6.10;;
11996;SDS011;6058;48.704;9.474;2023-04-10T02:44:01;7.27;;;5.87;;
11996;SDS011;6058;48.704;9.474;2023-04-10T02:46:28;8.73;;;5.80;;
11996;SDS011;6058;48.704;9.474;2023-04-10T02:48:55;6.70;;;5.03;;
11996;SDS011;6058;48.704;9.474;2023-04-10T02:51:22;6.13;;;5.03;;
11996;SDS011;6058;48.704;9.474;2023-04-10T02:53:51;8.93;;;5.70;;
11996;SDS011;6058;48.704;9.474;2023-04-10T02:56:18;7.93;;;5.53;;
11996;SDS011;6058;48.704;9.474;2023-04-10T02:58:45;8.00;;;5.87;;
11996;SDS011;6058;48.704;9.474;2023-04-10T03:01:12;8.50;;;5.77;;
11996;SDS011;6058;48.704;9.474;2023-04-10T03:03:40;6.33;;;5.10;;
11996;SDS011;6058;48.704;9.474;2023-04-10T03:06:07;8.90;;;6.43;;
11996;SDS011;6058;48.704;9.474;2023-04-10T03:08:36;6.00;;;4.87;;
11996;SDS011;6058;48.704;9.474;2023-04-10T03:11:05;10.33;;;5.97;;
11996;SDS011;6058;48.704;9.474;2023-04-10T03:13:33;8.77;;;5.63;;
11996;SDS011;6058;48.704;9.474;2023-04-10T03:16:00;7.57;;;5.50;;
11996;SDS011;6058;48.704;9.474;2023-04-10T03:18:27;8.40;;;5.97;;
11996;SDS011;6058;48.704;9.474;2023-04-10T03:20:56;7.23;;;6.03;;
11996;SDS011;6058;48.704;9.474;2023-04-10T03:23:23;8.20;;;5.50;;
11996;SDS011;6058;48.704;9.474;2023-04-10T03:25:50;7.27;;;5.07;;
11996;SDS011;6058;48.704;9.474;2023-04-10T03:28:20;7.70;;;5.93;;
11996;SDS011;6058;48.704;9.474;2023-04-10T03:30:47;7.83;;;5.63;;
11996;SDS011;6058;48.704;9.474;2023-04-10T03:33:15;7.30;;;5.40;;
11996;SDS011;6058;48.704;9.474;2023-04-10T03:35:43;8.73;;;5.77;;
11996;SDS011;6058;48.704;9.474;2023-04-10T03:38:15;6.90;;;5.10;;
11996;SDS011;6058;48.704;9.474;2023-04-10T03:40:42;7.57;;;5.97;;
11996;SDS011;6058;48.704;9.474;2023-04-10T03:43:09;7.67;;;5.77;;
11996;SDS011;6058;48.704;9.474;2023-04-10T03:45:38;10.90;;;6.03;;
11996;SDS011;6058;48.704;9.474;2023-04-10T03:48:05;7.17;;;5.13;;
11996;SDS011;6058;48.704;9.474;2023-04-10T03:50:32;8.00;;;5.67;;
11996;SDS011;6058;48.704;9.474;2023-04-10T03:52:59;7.67;;;5.50;;
11996;SDS011;6058;48.704;9.474;2023-04-10T03:55:26;7.43;;;5.70;;
11996;SDS011;6058;48.704;9.474;2023-04-10T03:57:54;7.27;;;5.50;;
11996;SDS011;6058;48.704;9.474;2023-04-10T04:00:21;7.27;;;5.20;;
11996;SDS011;6058;48.704;9.474;2023-04-10T04:02:49;7.13;;;5.30;;
11996;SDS011;6058;48.704;9.474;2023-04-10T04:05:18;7.67;;;4.80;;
11996;SDS011;6058;48.704;9.474;2023-04-10T04:07:45;7.60;;;5.30;;
11996;SDS011;6058;48.704;9.474;2023-04-10T04:10:12;8.07;;;5.90;;
11996;SDS011;6058;48.704;9.474;2023-04-10T04:12:40;9.20;;;4.80;;
11996;SDS011;6058;48.704;9.474;2023-04-10T04:15:07;6.77;;;5.10;;
11996;SDS011;6058;48.704;9.474;2023-04-10T04:17:34;6.40;;;4.63;;
11996;SDS011;6058;48.704;9.474;2023-04-10T04:20:03;6.63;;;5.33;;
11996;SDS011;6058;48.704;9.474;2023-04-10T04:22:30;6.50;;;4.93;;
11996;SDS011;6058;48.704;9.474;2023-04-10T04:24:58;8.33;;;5.10;;
11996;SDS011;6058;48.704;9.474;2023-04-10T04:27:25;6.43;;;4.80;;
11996;SDS011;6058;48.704;9.474;2023-04-10T04:29:52;7.63;;;5.33;;
11996;SDS011;6058;48.704;9.474;2023-04-10T04:32:19;7.23;;;5.13;;
11996;SDS011;6058;48.704;9.474;2023-04-10T04:34:46;5.97;;;5.00;;
11996;SDS011;6058;48.704;9.474;2023-04-10T04:37:15;7.20;;;5.10;;
11996;SDS011;6058;48.704;9.474;2023-04-10T04:39:42;7.60;;;5.73;;
11996;SDS011;6058;48.704;9.474;2023-04-10T04:42:09;6.97;;;5.10;;
11996;SDS011;6058;48.704;9.474;2023-04-10T04:44:36;7.73;;;5.40;;
11996;SDS011;6058;48.704;9.474;2023-04-10T04:47:03;7.40;;;5.30;;
11996;SDS011;6058;48.704;9.474;2023-04-10T04:49:30;7.20;;;5.20;;
11996;SDS011;6058;48.704;9.474;2023-04-10T04:51:57;8.73;;;5.73;;
11996;SDS011;6058;48.704;9.474;2023-04-10T04:54:26;7.50;;;5.33;;
11996;SDS011;6058;48.704;9.474;2023-04-10T04:56:53;7.20;;;5.50;;
11996;SDS011;6058;48.704;9.474;2023-04-10T04:59:20;8.03;;;5.33;;
11996;SDS011;6058;48.704;9.474;2023-04-10T05:01:48;7.03;;;5.07;;
11996;SDS011;6058;48.704;9.474;2023-04-10T05:04:15;7.50;;;5.00;;
11996;SDS011;6058;48.704;9.474;2023-04-10T05:06:42;8.83;;;5.00;;
11996;SDS011;6058;48.704;9.474;2023-04-10T05:09:09;7.03;;;4.70;;
11996;SDS011;6058;48.704;9.474;2023-04-10T05:11:38;5.30;;;4.77;;
11996;SDS011;6058;48.704;9.474;2023-04-10T05:14:05;7.73;;;5.17;;
11996;SDS011;6058;48.704;9.474;2023-04-10T05:16:32;6.17;;;4.57;;
11996;SDS011;6058;48.704;9.474;2023-04-10T05:18:59;10.17;;;5.03;;
11996;SDS011;6058;48.704;9.474;2023-04-10T05:21:26;8.50;;;5.00;;
11996;SDS011;6058;48.704;9.474;2023-04-10T05:23:56;7.37;;;6.00;;
11996;SDS011;6058;48.704;9.474;2023-04-10T05:26:23;9.37;;;6.37;;
11996;SDS011;6058;48.704;9.474;2023-04-10T05:31:27;6.33;;;5.30;;
11996;SDS011;6058;48.704;9.474;2023-04-10T05:34:06;7.17;;;5.40;;
11996;SDS011;6058;48.704;9.474;2023-04-10T05:36:33;6.90;;;5.57;;
11996;SDS011;6058;48.704;9.474;2023-04-10T05:39:00;7.13;;;5.53;;
11996;SDS011;6058;48.704;9.474;2023-04-10T05:41:30;7.03;;;6.13;;
11996;SDS011;6058;48.704;9.474;2023-04-10T05:43:57;7.27;;;5.77;;
11996;SDS011;6058;48.704;9.474;2023-04-10T05:46:24;7.53;;;5.30;;
11996;SDS011;6058;48.704;9.474;2023-04-10T05:48:53;9.07;;;5.77;;
11996;SDS011;6058;48.704;9.474;2023-04-10T05:51:20;6.90;;;5.47;;
11996;SDS011;6058;48.704;9.474;2023-04-10T05:53:47;7.47;;;6.00;;
11996;SDS011;6058;48.704;9.474;2023-04-10T05:56:14;8.27;;;5.20;;
11996;SDS011;6058;48.704;9.474;2023-04-10T05:58:42;6.70;;;4.90;;
11996;SDS011;6058;48.704;9.474;2023-04-10T06:01:09;5.70;;;4.87;;
11996;SDS011;6058;48.704;9.474;2023-04-10T06:03:37;7.40;;;5.20;;
11996;SDS011;6058;48.704;9.474;2023-04-10T06:06:06;6.10;;;5.30;;
11996;SDS011;6058;48.704;9.474;2023-04-10T06:08:33;6.90;;;5.80;;
11996;SDS011;6058;48.704;9.474;2023-04-10T06:11:00;7.80;;;5.53;;
11996;SDS011;6058;48.704;9.474;2023-04-10T06:13:28;7.17;;;6.43;;
11996;SDS011;6058;48.704;9.474;2023-04-10T06:16:03;8.10;;;6.07;;
11996;SDS011;6058;48.704;9.474;2023-04-10T06:18:30;5.17;;;4.57;;
11996;SDS011;6058;48.704;9.474;2023-04-10T06:20:58;6.87;;;5.33;;
11996;SDS011;6058;48.704;9.474;2023-04-10T06:23:27;6.50;;;5.30;;
11996;SDS011;6058;48.704;9.474;2023-04-10T06:25:54;7.17;;;5.60;;
11996;SDS011;6058;48.704;9.474;2023-04-10T06:28:21;9.00;;;5.90;;
11996;SDS011;6058;48.704;9.474;2023-04-10T06:30:48;5.97;;;4.97;;
11996;SDS011;6058;48.704;9.474;2023-04-10T06:33:16;7.33;;;5.40;;
11996;SDS011;6058;48.704;9.474;2023-04-10T06:35:43;5.97;;;4.97;;
11996;SDS011;6058;48.704;9.474;2023-04-10T06:38:10;6.20;;;5.10;;
11996;SDS011;6058;48.704;9.474;2023-04-10T06:40:39;6.10;;;5.17;;
11996;SDS011;6058;48.704;9.474;2023-04-10T06:43:06;7.27;;;5.20;;
11996;SDS011;6058;48.704;9.474;2023-04-10T06:45:33;5.10;;;4.27;;
11996;SDS011;6058;48.704;9.474;2023-04-10T06:48:00;6.17;;;4.70;;
11996;SDS011;6058;48.704;9.474;2023-04-10T06:50:27;5.80;;;4.80;;
11996;SDS011;6058;48.704;9.474;2023-04-10T06:52:54;5.50;;;4.70;;
11996;SDS011;6058;48.704;9.474;2023-04-10T06:55:24;5.93;;;4.20;;
11996;SDS011;6058;48.704;9.474;2023-04-10T06:57:52;5.87;;;4.53;;
11996;SDS011;6058;48.704;9.474;2023-04-10T07:00:22;6.27;;;4.60;;
11996;SDS011;6058;48.704;9.474;2023-04-10T07:02:49;5.57;;;4.53;;
11996;SDS011;6058;48.704;9.474;2023-04-10T07:05:17;4.60;;;4.17;;
11996;SDS011;6058;48.704;9.474;2023-04-10T07:07:44;4.17;;;3.77;;
11996;SDS011;6058;48.704;9.474;2023-04-10T07:10:11;5.03;;;4.00;;
11996;SDS011;6058;48.704;9.474;2023-04-10T07:12:38;4.70;;;4.27;;
11996;SDS011;6058;48.704;9.474;2023-04-10T07:15:07;4.53;;;3.80;;
11996;SDS011;6058;48.704;9.474;2023-04-10T07:17:36;4.53;;;4.03;;
11996;SDS011;6058;48.704;9.474;2023-04-10T07:20:04;4.97;;;4.47;;
11996;SDS011;6058;48.704;9.474;2023-04-10T07:22:31;4.63;;;4.10;;
11996;SDS011;6058;48.704;9.474;2023-04-10T07:24:59;6.10;;;4.30;;
11996;SDS011;6058;48.704;9.474;2023-04-10T07:27:26;4.23;;;3.83;;
11996;SDS011;6058;48.704;9.474;2023-04-10T07:29:53;5.30;;;4.00;;
11996;SDS011;6058;48.704;9.474;2023-04-10T07:32:22;5.60;;;4.40;;
11996;SDS011;6058;48.704;9.474;2023-04-10T07:34:50;4.43;;;4.03;;
11996;SDS011;6058;48.704;9.474;2023-04-10T07:37:17;3.90;;;3.50;;
11996;SDS011;6058;48.704;9.474;2023-04-10T07:39:44;4.23;;;3.50;;
11996;SDS011;6058;48.704;9.474;2023-04-10T07:42:11;4.53;;;4.00;;
11996;SDS011;6058;48.704;9.474;2023-04-10T07:44:38;4.13;;;3.73;;
11996;SDS011;6058;48.704;9.474;2023-04-10T07:47:05;4.87;;;4.00;;
11996;SDS011;6058;48.704;9.474;2023-04-10T07:49:34;4.10;;;3.70;;
11996;SDS011;6058;48.704;9.474;2023-04-10T07:52:01;6.17;;;4.23;;
11996;SDS011;6058;48.704;9.474;2023-04-10T07:54:30;4.33;;;3.87;;
11996;SDS011;6058;48.704;9.474;2023-04-10T07:56:58;3.67;;;3.27;;
11996;SDS011;6058;48.704;9.474;2023-04-10T07:59:25;4.50;;;4.10;;
11996;SDS011;6058;48.704;9.474;2023-04-10T08:01:52;4.53;;;3.63;;
11996;SDS011;6058;48.704;9.474;2023-04-10T08:04:20;3.73;;;3.43;;
11996;SDS011;6058;48.704;9.474;2023-04-10T08:06:48;4.13;;;3.73;;
11996;SDS011;6058;48.704;9.474;2023-04-10T08:09:15;3.93;;;3.60;;
11996;SDS011;6058;48.704;9.474;2023-04-10T08:11:42;3.73;;;3.33;;
11996;SDS011;6058;48.704;9.474;2023-04-10T08:14:09;4.13;;;3.63;;
11996;SDS011;6058;48.704;9.474;2023-04-10T08:16:37;3.50;;;3.20;;
11996;SDS011;6058;48.704;9.474;2023-04-10T08:19:04;3.70;;;3.40;;
11996;SDS011;6058;48.704;9.474;2023-04-10T08:21:31;4.73;;;3.60;;
11996;SDS011;6058;48.704;9.474;2023-04-10T08:24:00;4.67;;;3.53;;
11996;SDS011;6058;48.704;9.474;2023-04-10T08:26:28;3.70;;;3.40;;
11996;SDS011;6058;48.704;9.474;2023-04-10T08:28:56;3.90;;;3.50;;
11996;SDS011;6058;48.704;9.474;2023-04-10T08:31:24;4.20;;;3.80;;
11996;SDS011;6058;48.704;9.474;2023-04-10T08:33:51;3.90;;;3.60;;
11996;SDS011;6058;48.704;9.474;2023-04-10T08:36:19;4.07;;;3.67;;
11996;SDS011;6058;48.704;9.474;2023-04-10T08:38:46;3.90;;;3.50;;
11996;SDS011;6058;48.704;9.474;2023-04-10T08:41:15;3.47;;;2.90;;
11996;SDS011;6058;48.704;9.474;2023-04-10T08:43:42;4.03;;;3.33;;
11996;SDS011;6058;48.704;9.474;2023-04-10T08:46:10;3.57;;;3.20;;
11996;SDS011;6058;48.704;9.474;2023-04-10T08:48:38;3.43;;;3.13;;
11996;SDS011;6058;48.704;9.474;2023-04-10T08:51:09;3.50;;;3.20;;
11996;SDS011;6058;48.704;9.474;2023-04-10T08:53:40;4.30;;;3.53;;
11996;SDS011;6058;48.704;9.474;2023-04-10T08:56:10;3.57;;;3.10;;
11996;SDS011;6058;48.704;9.474;2023-04-10T08:58:39;3.73;;;3.43;;
11996;SDS011;6058;48.704;9.474;2023-04-10T09:01:06;4.00;;;3.60;;
11996;SDS011;6058;48.704;9.474;2023-04-10T09:03:34;3.40;;;3.10;;
11996;SDS011;6058;48.704;9.474;2023-04-10T09:06:02;4.00;;;3.60;;
11996;SDS011;6058;48.704;9.474;2023-04-10T09:08:29;3.40;;;3.10;;
11996;SDS011;6058;48.704;9.474;2023-04-10T09:10:56;4.57;;;2.80;;
11996;SDS011;6058;48.704;9.474;2023-04-10T09:13:37;4.10;;;3.30;;
11996;SDS011;6058;48.704;9.474;2023-04-10T09:16:07;4.13;;;3.30;;
11996;SDS011;6058;48.704;9.474;2023-04-10T09:18:44;3.63;;;3.33;;
11996;SDS011;6058;48.704;9.474;2023-04-10T09:21:12;3.07;;;2.73;;
11996;SDS011;6058;48.704;9.474;2023-04-10T09:23:40;5.37;;;2.43;;
11996;SDS011;6058;48.704;9.474;2023-04-10T09:26:20;5.23;;;3.07;;
11996;SDS011;6058;48.704;9.474;2023-04-10T09:28:55;3.27;;;2.97;;
11996;SDS011;6058;48.704;9.474;2023-04-10T09:31:27;3.03;;;2.83;;
11996;SDS011;6058;48.704;9.474;2023-04-10T09:34:05;2.80;;;2.53;;
11996;SDS011;6058;48.704;9.474;2023-04-10T09:36:32;2.63;;;2.43;;
11996;SDS011;6058;48.704;9.474;2023-04-10T09:38:59;3.60;;;2.90;;
11996;SDS011;6058;48.704;9.474;2023-04-10T09:41:27;3.00;;;2.80;;
11996;SDS011;6058;48.704;9.474;2023-04-10T09:44:04;2.27;;;2.03;;
11996;SDS011;6058;48.704;9.474;2023-04-10T09:46:33;3.37;;;2.40;;
11996;SDS011;6058;48.704;9.474;2023-04-10T09:49:00;2.37;;;2.17;;
11996;SDS011;6058;48.704;9.474;2023-04-10T09:51:29;2.00;;;1.90;;
11996;SDS011;6058;48.704;9.474;2023-04-10T09:53:57;2.10;;;1.90;;
11996;SDS011;6058;48.704;9.474;2023-04-10T09:56:25;1.90;;;1.80;;
11996;SDS011;6058;48.704;9.474;2023-04-10T09:58:52;2.20;;;2.00;;
11996;SDS011;6058;48.704;9.474;2023-04-10T10:01:22;1.80;;;1.70;;
11996;SDS011;6058;48.704;9.474;2023-04-10T10:03:51;1.60;;;1.50;;
11996;SDS011;6058;48.704;9.474;2023-04-10T10:06:19;2.00;;;1.90;;
11996;SDS011;6058;48.704;9.474;2023-04-10T10:08:47;1.77;;;1.67;;
11996;SDS011;6058;48.704;9.474;2023-04-10T10:11:14;2.10;;;1.90;;
11996;SDS011;6058;48.704;9.474;2023-04-10T10:13:45;1.80;;;1.70;;
11996;SDS011;6058;48.704;9.474;2023-04-10T10:16:14;2.40;;;2.17;;
11996;SDS011;6058;48.704;9.474;2023-04-10T10:18:43;2.33;;;2.13;;
11996;SDS011;6058;48.704;9.474;2023-04-10T10:21:11;2.00;;;1.83;;
11996;SDS011;6058;48.704;9.474;2023-04-10T10:23:39;1.90;;;1.80;;
11996;SDS011;6058;48.704;9.474;2023-04-10T10:26:08;1.70;;;1.60;;
11996;SDS011;6058;48.704;9.474;2023-04-10T10:28:36;1.87;;;1.77;;
11996;SDS011;6058;48.704;9.474;2023-04-10T10:31:03;2.07;;;1.80;;
11996;SDS011;6058;48.704;9.474;2023-04-10T10:33:32;1.70;;;1.60;;
11996;SDS011;6058;48.704;9.474;2023-04-10T10:36:01;1.90;;;1.80;;
11996;SDS011;6058;48.704;9.474;2023-04-10T10:38:31;1.70;;;1.60;;
11996;SDS011;6058;48.704;9.474;2023-04-10T10:40:59;2.17;;;1.97;;
11996;SDS011;6058;48.704;9.474;2023-04-10T10:43:34;2.00;;;1.90;;
11996;SDS011;6058;48.704;9.474;2023-04-10T10:46:02;1.90;;;1.70;;
11996;SDS011;6058;48.704;9.474;2023-04-10T10:48:30;2.13;;;2.00;;
11996;SDS011;6058;48.704;9.474;2023-04-10T10:50:57;1.70;;;1.60;;
11996;SDS011;6058;48.704;9.474;2023-04-10T10:53:37;1.80;;;1.70;;
11996;SDS011;6058;48.704;9.474;2023-04-10T10:58:51;1.60;;;1.50;;
11996;SDS011;6058;48.704;9.474;2023-04-10T11:01:19;1.53;;;1.43;;
11996;SDS011;6058;48.704;9.474;2023-04-10T11:03:47;1.60;;;1.50;;
11996;SDS011;6058;48.704;9.474;2023-04-10T11:06:15;1.70;;;1.60;;
11996;SDS011;6058;48.704;9.474;2023-04-10T11:08:45;1.83;;;1.73;;
11996;SDS011;6058;48.704;9.474;2023-04-10T11:11:16;1.47;;;1.37;;
11996;SDS011;6058;48.704;9.474;2023-04-10T11:16:42;2.10;;;1.90;;
11996;SDS011;6058;48.704;9.474;2023-04-10T11:19:10;1.80;;;1.67;;
11996;SDS011;6058;48.704;9.474;2023-04-10T11:24:25;1.90;;;1.80;;
11996;SDS011;6058;48.704;9.474;2023-04-10T11:26:52;2.07;;;1.97;;
11996;SDS011;6058;48.704;9.474;2023-04-10T11:42:14;1.37;;;1.27;;
11996;SDS011;6058;48.704;9.474;2023-04-10T11:44:46;1.50;;;1.40;;
11996;SDS011;6058;48.704;9.474;2023-04-10T11:47:13;1.20;;;1.20;;
11996;SDS011;6058;48.704;9.474;2023-04-10T11:49:40;1.50;;;1.40;;
11996;SDS011;6058;48.704;9.474;2023-04-10T11:52:07;1.40;;;1.30;;
11996;SDS011;6058;48.704;9.474;2023-04-10T11:54:35;1.27;;;1.17;;
11996;SDS011;6058;48.704;9.474;2023-04-10T11:57:02;1.57;;;1.47;;
11996;SDS011;6058;48.704;9.474;2023-04-10T11:59:32;1.47;;;1.23;;
11996;SDS011;6058;48.704;9.474;2023-04-10T12:02:03;1.23;;;1.13;;
11996;SDS011;6058;48.704;9.474;2023-04-10T12:04:31;2.60;;;1.20;;
11996;SDS011;6058;48.704;9.474;2023-04-10T12:06:58;1.10;;;1.10;;
11996;SDS011;6058;48.704;9.474;2023-04-10T12:09:26;1.20;;;1.20;;
11996;SDS011;6058;48.704;9.474;2023-04-10T12:11:53;1.33;;;1.23;;
11996;SDS011;6058;48.704;9.474;2023-04-10T12:14:28;1.50;;;1.40;;
11996;SDS011;6058;48.704;9.474;2023-04-10T12:16:57;1.50;;;1.40;;
11996;SDS011;6058;48.704;9.474;2023-04-10T12:19:24;1.50;;;1.40;;
11996;SDS011;6058;48.704;9.474;2023-04-10T12:21:51;1.50;;;1.40;;
11996;SDS011;6058;48.704;9.474;2023-04-10T12:27:04;1.83;;;1.73;;
11996;SDS011;6058;48.704;9.474;2023-04-10T12:29:31;1.57;;;1.40;;
11996;SDS011;6058;48.704;9.474;2023-04-10T12:32:06;2.10;;;1.77;;
11996;SDS011;6058;48.704;9.474;2023-04-10T12:34:35;1.33;;;1.23;;
11996;SDS011;6058;48.704;9.474;2023-04-10T12:37:02;1.90;;;1.80;;
11996;SDS011;6058;48.704;9.474;2023-04-10T12:39:29;1.60;;;1.50;;
11996;SDS011;6058;48.704;9.474;2023-04-10T12:42:09;1.33;;;1.20;;
11996;SDS011;6058;48.704;9.474;2023-04-10T12:44:48;1.50;;;1.40;;
11996;SDS011;6058;48.704;9.474;2023-04-10T12:47:16;1.40;;;1.30;;
11996;SDS011;6058;48.704;9.474;2023-04-10T12:52:26;1.20;;;1.20;;
11996;SDS011;6058;48.704;9.474;2023-04-10T12:54:53;1.10;;;1.10;;
11996;SDS011;6058;48.704;9.474;2023-04-10T12:57:24;1.50;;;1.40;;
11996;SDS011;6058;48.704;9.474;2023-04-10T12:59:52;3.50;;;1.37;;
11996;SDS011;6058;48.704;9.474;2023-04-10T13:02:21;1.60;;;1.50;;
11996;SDS011;6058;48.704;9.474;2023-04-10T13:04:48;1.43;;;1.33;;
11996;SDS011;6058;48.704;9.474;2023-04-10T13:07:15;1.47;;;1.13;;
11996;SDS011;6058;48.704;9.474;2023-04-10T13:09:43;1.57;;;1.47;;
11996;SDS011;6058;48.704;9.474;2023-04-10T13:12:10;1.30;;;1.20;;
11996;SDS011;6058;48.704;9.474;2023-04-10T13:14:37;1.10;;;1.10;;
11996;SDS011;6058;48.704;9.474;2023-04-10T13:17:05;1.30;;;1.20;;
11996;SDS011;6058;48.704;9.474;2023-04-10T13:19:33;1.17;;;1.07;;
11996;SDS011;6058;48.704;9.474;2023-04-10T13:22:01;1.00;;;1.00;;
11996;SDS011;6058;48.704;9.474;2023-04-10T13:24:28;1.30;;;1.20;;
11996;SDS011;6058;48.704;9.474;2023-04-10T13:26:56;1.20;;;1.20;;
11996;SDS011;6058;48.704;9.474;2023-04-10T13:29:23;1.20;;;1.10;;
11996;SDS011;6058;48.704;9.474;2023-04-10T13:31:50;1.23;;;1.20;;
11996;SDS011;6058;48.704;9.474;2023-04-10T13:34:17;1.13;;;1.13;;
11996;SDS011;6058;48.704;9.474;2023-04-10T13:36:46;1.40;;;1.17;;
11996;SDS011;6058;48.704;9.474;2023-04-10T13:39:14;2.07;;;1.60;;
11996;SDS011;6058;48.704;9.474;2023-04-10T13:41:42;1.20;;;1.20;;
11996;SDS011;6058;48.704;9.474;2023-04-10T13:44:09;1.10;;;1.10;;
11996;SDS011;6058;48.704;9.474;2023-04-10T13:46:36;1.13;;;1.03;;
11996;SDS011;6058;48.704;9.474;2023-04-10T13:49:03;1.40;;;1.30;;
11996;SDS011;6058;48.704;9.474;2023-04-10T13:51:31;1.00;;;1.00;;
11996;SDS011;6058;48.704;9.474;2023-04-10T13:53:59;1.30;;;1.20;;
11996;SDS011;6058;48.704;9.474;2023-04-10T13:56:26;1.27;;;1.17;;
11996;SDS011;6058;48.704;9.474;2023-04-10T13:58:54;1.23;;;1.13;;
11996;SDS011;6058;48.704;9.474;2023-04-10T14:01:21;1.20;;;1.10;;
11996;SDS011;6058;48.704;9.474;2023-04-10T14:03:48;0.90;;;0.90;;
11996;SDS011;6058;48.704;9.474;2023-04-10T14:06:15;0.90;;;0.90;;
11996;SDS011;6058;48.704;9.474;2023-04-10T14:08:43;1.63;;;1.40;;
11996;SDS011;6058;48.704;9.474;2023-04-10T14:11:11;1.90;;;1.13;;
11996;SDS011;6058;48.704;9.474;2023-04-10T14:13:38;1.10;;;1.07;;
11996;SDS011;6058;48.704;9.474;2023-04-10T14:16:06;1.10;;;1.10;;
11996;SDS011;6058;48.704;9.474;2023-04-10T14:18:35;0.93;;;0.93;;
11996;SDS011;6058;48.704;9.474;2023-04-10T14:21:02;1.37;;;1.00;;
11996;SDS011;6058;48.704;9.474;2023-04-10T14:23:29;1.00;;;1.00;;
11996;SDS011;6058;48.704;9.474;2023-04-10T14:25:56;1.17;;;1.10;;
11996;SDS011;6058;48.704;9.474;2023-04-10T14:28:25;1.07;;;1.00;;
11996;SDS011;6058;48.704;9.474;2023-04-10T14:30:53;1.30;;;1.20;;
11996;SDS011;6058;48.704;9.474;2023-04-10T14:33:20;1.10;;;1.00;;
11996;SDS011;6058;48.704;9.474;2023-04-10T14:35:47;1.37;;;1.23;;
11996;SDS011;6058;48.704;9.474;2023-04-10T14:38:14;1.13;;;1.03;;
11996;SDS011;6058;48.704;9.474;2023-04-10T14:40:42;1.53;;;1.40;;
11996;SDS011;6058;48.704;9.474;2023-04-10T14:43:12;1.00;;;1.00;;
11996;SDS011;6058;48.704;9.474;2023-04-10T14:45:41;1.20;;;1.10;;
11996;SDS011;6058;48.704;9.474;2023-04-10T14:48:08;1.30;;;1.10;;
11996;SDS011;6058;48.704;9.474;2023-04-10T14:50:36;1.00;;;1.00;;
11996;SDS011;6058;48.704;9.474;2023-04-10T14:53:03;1.10;;;1.10;;
11996;SDS011;6058;48.704;9.474;2023-04-10T14:55:33;0.97;;;0.97;;
11996;SDS011;6058;48.704;9.474;2023-04-10T14:58:00;1.23;;;1.13;;
11996;SDS011;6058;48.704;9.474;2023-04-10T15:00:31;1.00;;;1.00;;
11996;SDS011;6058;48.704;9.474;2023-04-10T15:02:59;1.20;;;1.10;;
11996;SDS011;6058;48.704;9.474;2023-04-10T15:05:26;1.43;;;1.33;;
11996;SDS011;6058;48.704;9.474;2023-04-10T15:07:54;0.90;;;0.90;;
11996;SDS011;6058;48.704;9.474;2023-04-10T15:10:21;1.40;;;1.30;;
11996;SDS011;6058;48.704;9.474;2023-04-10T15:12:48;1.37;;;1.27;;
11996;SDS011;6058;48.704;9.474;2023-04-10T15:15:15;0.83;;;0.83;;
11996;SDS011;6058;48.704;9.474;2023-04-10T15:17:43;0.90;;;0.90;;
11996;SDS011;6058;48.704;9.474;2023-04-10T15:20:11;1.27;;;1.17;;
11996;SDS011;6058;48.704;9.474;2023-04-10T15:22:39;1.20;;;1.20;;
11996;SDS011;6058;48.704;9.474;2023-04-10T15:25:07;1.30;;;1.20;;
11996;SDS011;6058;48.704;9.474;2023-04-10T15:27:36;1.50;;;1.40;;
11996;SDS011;6058;48.704;9.474;2023-04-10T15:30:03;1.40;;;1.30;;
11996;SDS011;6058;48.704;9.474;2023-04-10T15:32:31;1.03;;;1.03;;
11996;SDS011;6058;48.704;9.474;2023-04-10T15:34:58;1.10;;;1.10;;
11996;SDS011;6058;48.704;9.474;2023-04-10T15:37:26;1.10;;;1.00;;
11996;SDS011;6058;48.704;9.474;2023-04-10T15:39:53;1.30;;;1.20;;